Time;durP1;ratioP1;P1;durP2;ratioP2;P2;SDS_P1;SDS_P2;PMS_P1;PMS_P2;Temp;Humidity;BMP_temperature;BMP_pressure;BME280_temperature;BME280_humidity;BME280_pressure;Samples;Min_cycle;Max_cycle;Signal;HPM_P1;HPM_P2
2021/01/23 00:02:01;;;;;;;50.65;22.27;;;;;;;15.94;46.71;155308.56;1808791;78;21824;-60
2021/01/23 00:04:34;;;;;;;36.95;17.90;;;;;;;15.94;46.75;155309.91;1810132;77;21379;-59
2021/01/23 00:07:07;;;;;;;38.40;17.48;;;;;;;15.86;46.80;155287.52;1812504;77;21376;-58
2021/01/23 00:09:41;;;;;;;34.75;16.73;;;;;;;15.93;46.75;155305.94;1791408;77;21217;-59
2021/01/23 00:12:14;;;;;;;31.23;14.85;;;;;;;16.09;46.55;155348.09;1799582;78;21409;-58
2021/01/23 00:14:46;;;;;;;34.80;14.55;;;;;;;15.91;46.74;155300.70;1806285;77;21138;-59
2021/01/23 00:17:19;;;;;;;29.07;15.53;;;;;;;15.89;46.76;155295.42;1739066;81;21257;-60
2021/01/23 00:19:52;;;;;;;28.80;14.47;;;;;;;15.92;46.75;155304.64;1711456;82;21222;-59
2021/01/23 00:22:25;;;;;;;27.13;13.80;;;;;;;16.02;46.47;155330.97;1724223;82;21281;-59
2021/01/23 00:25:00;;;;;;;28.55;15.25;;;;;;;15.78;46.93;155266.45;1804105;77;21820;-60
2021/01/23 00:27:33;;;;;;;30.02;14.43;;;;;;;15.74;47.00;155255.91;1814475;78;21201;-60
2021/01/23 00:30:07;;;;;;;26.07;12.70;;;;;;;15.70;47.02;155245.34;1782796;79;21210;-59
2021/01/23 00:32:40;;;;;;;34.90;16.62;;;;;;;15.66;47.02;155236.14;1773859;79;21245;-59
2021/01/23 00:35:15;;;;;;;35.38;17.57;;;;;;;15.64;47.10;155230.86;1785964;79;21217;-59
2021/01/23 00:37:48;;;;;;;40.65;19.55;;;;;;;15.45;47.35;155180.84;1807233;79;21283;-59
2021/01/23 00:40:20;;;;;;;41.30;18.73;;;;;;;15.48;47.42;155187.42;1788164;78;21371;-59
2021/01/23 00:42:53;;;;;;;39.67;18.90;;;;;;;15.46;47.44;155183.50;1794474;78;21288;-59
2021/01/23 00:45:26;;;;;;;32.70;17.15;;;;;;;15.46;47.49;155182.14;1819682;78;21337;-59
2021/01/23 00:47:58;;;;;;;28.83;13.35;;;;;;;15.55;47.41;155207.17;1810257;78;21407;-59
2021/01/23 00:50:31;;;;;;;23.05;11.08;;;;;;;15.71;47.14;155247.98;1806044;79;21685;-59
2021/01/23 00:53:04;;;;;;;23.35;11.05;;;;;;;15.65;47.22;155233.50;1786902;79;21165;-60
2021/01/23 00:55:38;;;;;;;21.55;11.60;;;;;;;15.73;47.09;155254.61;1732025;82;21253;-60
2021/01/23 00:58:10;;;;;;;29.42;13.68;;;;;;;15.77;47.01;155265.11;1738322;81;21450;-59
2021/01/23 01:00:42;;;;;;;28.85;14.53;;;;;;;15.79;47.05;155270.39;1794145;78;21185;-59
2021/01/23 01:03:15;;;;;;;23.60;12.45;;;;;;;15.91;46.91;155302.00;1801665;78;21936;-58
2021/01/23 01:05:49;;;;;;;26.00;13.10;;;;;;;15.86;47.00;155287.52;1806790;78;21364;-59
2021/01/23 01:08:21;;;;;;;35.48;15.63;;;;;;;15.90;46.96;155299.36;1824258;78;21240;-59
2021/01/23 01:10:55;;;;;;;42.33;18.55;;;;;;;15.80;47.02;155273.03;1821022;77;21208;-59
2021/01/23 01:13:27;;;;;;;42.08;20.15;;;;;;;15.80;47.03;155273.03;1816885;78;21800;-59
2021/01/23 01:15:59;;;;;;;28.87;16.75;;;;;;;15.82;46.91;155278.31;1796879;78;21157;-59
2021/01/23 01:18:32;;;;;;;25.30;12.50;;;;;;;15.86;46.84;155287.52;1808600;78;21198;-59
2021/01/23 01:21:05;;;;;;;24.47;11.12;;;;;;;15.79;46.85;155269.09;1806332;78;21316;-59
2021/01/23 01:23:38;;;;;;;27.62;11.75;;;;;;;15.75;46.88;155259.83;1781260;79;21374;-59
2021/01/23 01:26:11;;;;;;;19.95;10.60;;;;;;;15.66;46.91;155236.14;1780734;79;21233;-59
2021/01/23 01:28:43;;;;;;;20.70;10.95;;;;;;;15.66;46.93;155236.14;1794443;79;21366;-60
2021/01/23 01:31:15;;;;;;;22.93;10.60;;;;;;;15.76;46.75;155262.47;1805631;79;21332;-59
2021/01/23 01:33:48;;;;;;;23.50;11.63;;;;;;;15.76;46.83;155261.19;1799531;79;21225;-59
2021/01/23 01:36:21;;;;;;;20.55;10.65;;;;;;;15.79;46.67;155270.39;1797636;79;21313;-59
2021/01/23 01:38:53;;;;;;;23.80;10.48;;;;;;;15.84;46.50;155282.23;1811389;79;21205;-58
2021/01/23 01:41:26;;;;;;;21.25;11.00;;;;;;;15.75;46.67;155258.53;1797228;78;21315;-58
2021/01/23 01:43:58;;;;;;;25.15;12.63;;;;;;;15.79;46.68;155269.09;1810426;78;21304;-57
2021/01/23 01:46:31;;;;;;;18.95;11.95;;;;;;;15.85;46.64;155284.88;1793693;79;21430;-57
2021/01/23 01:49:04;;;;;;;23.05;11.83;;;;;;;15.89;46.63;155296.72;1800152;78;21252;-57
2021/01/23 01:51:37;;;;;;;23.65;11.93;;;;;;;15.87;46.63;155290.16;1812307;78;21746;-57
2021/01/23 01:54:09;;;;;;;20.60;11.33;;;;;;;15.94;46.58;155308.56;1820104;78;21212;-57
2021/01/23 01:56:43;;;;;;;22.65;11.18;;;;;;;15.97;46.53;155316.48;1820506;78;21335;-58
2021/01/23 01:59:15;;;;;;;21.33;10.03;;;;;;;16.08;46.32;155345.45;1831910;78;21915;-57
2021/01/23 02:01:47;;;;;;;19.70;9.63;;;;;;;16.01;46.38;155327.03;1808620;78;21218;-58
2021/01/23 02:04:39;;;;;;;17.45;10.10;;;;;;;16.00;46.43;155324.41;1791067;79;21279;-57
2021/01/23 02:07:29;;;;;;;17.82;9.70;;;;;;;16.08;46.42;155346.81;1814627;78;21376;-57
2021/01/23 02:10:11;;;;;;;20.17;10.58;;;;;;;16.08;46.36;155346.81;1804890;78;21165;-57
2021/01/23 02:13:03;;;;;;;19.87;11.48;;;;;;;16.04;46.40;155334.91;1809576;78;21193;-57
2021/01/23 02:15:38;;;;;;;19.52;10.93;;;;;;;16.10;46.35;155352.03;1785072;78;21220;-58
2021/01/23 02:18:13;;;;;;;20.52;10.93;;;;;;;16.24;46.16;155387.62;1784978;79;21887;-57
2021/01/23 02:21:28;;;;;;;21.12;10.23;;;;;;;16.21;46.17;155379.72;1743297;81;21367;-58
2021/01/23 02:24:01;;;;;;;21.77;11.28;;;;;;;16.23;46.18;155386.28;1827435;78;21407;-57
2021/01/23 02:26:47;;;;;;;22.22;9.88;;;;;;;16.17;46.22;155370.50;1831905;77;21930;-58
2021/01/23 02:29:44;;;;;;;18.55;9.83;;;;;;;16.08;46.31;155346.81;1772292;79;21237;-57
2021/01/23 02:32:16;;;;;;;19.70;10.55;;;;;;;16.04;46.40;155334.91;1772388;79;21247;-58
2021/01/23 02:34:48;;;;;;;17.35;9.45;;;;;;;16.09;46.29;155349.39;1770638;79;21261;-57
2021/01/23 02:37:21;;;;;;;22.50;10.10;;;;;;;16.12;46.26;155357.31;1799157;79;21186;-58
2021/01/23 02:39:54;;;;;;;16.95;9.45;;;;;;;16.13;46.28;155358.66;1815229;78;21394;-57
2021/01/23 02:42:26;;;;;;;20.72;9.83;;;;;;;16.04;46.29;155334.91;1819817;78;21367;-58
2021/01/23 02:44:58;;;;;;;21.25;10.43;;;;;;;16.03;46.49;155332.31;1828986;78;21408;-58
2021/01/23 02:47:31;;;;;;;23.05;11.73;;;;;;;16.00;46.52;155325.69;1813636;78;21399;-58
2021/01/23 02:50:06;;;;;;;23.07;12.70;;;;;;;16.01;46.53;155328.33;1793603;79;21780;-58
2021/01/23 02:53:00;;;;;;;23.98;13.10;;;;;;;16.03;46.48;155333.61;1788343;79;21212;-58
2021/01/23 02:55:34;;;;;;;25.43;14.05;;;;;;;16.03;46.49;155332.31;1804807;79;21182;-58
2021/01/23 02:58:06;;;;;;;22.85;12.82;;;;;;;15.94;46.60;155309.91;1805086;78;21383;-58
2021/01/23 03:00:38;;;;;;;23.18;13.40;;;;;;;15.93;46.62;155305.94;1808840;78;21360;-58
2021/01/23 03:03:10;;;;;;;23.25;12.50;;;;;;;15.94;46.55;155309.91;1792165;79;21703;-58
2021/01/23 03:05:43;;;;;;;25.12;12.47;;;;;;;15.97;46.45;155316.48;1782337;78;21375;-58
2021/01/23 03:08:15;;;;;;;19.65;10.68;;;;;;;15.91;46.49;155302.00;1833079;78;21347;-57
2021/01/23 03:10:48;;;;;;;19.65;10.95;;;;;;;15.83;46.56;155279.59;1821627;78;21198;-59
2021/01/23 03:13:20;;;;;;;20.52;10.82;;;;;;;15.80;46.72;155273.03;1816596;78;21304;-59
2021/01/23 03:15:52;;;;;;;19.07;10.28;;;;;;;15.79;46.71;155269.09;1803094;79;21316;-59
2021/01/23 03:18:24;;;;;;;18.70;10.38;;;;;;;15.77;46.69;155265.11;1804964;78;21386;-59
2021/01/23 03:20:57;;;;;;;22.45;11.08;;;;;;;15.70;46.87;155245.34;1806889;77;21363;-59
2021/01/23 03:23:29;;;;;;;17.87;9.33;;;;;;;15.58;46.90;155213.75;1811497;78;21343;-59
2021/01/23 03:26:01;;;;;;;21.17;10.40;;;;;;;15.53;46.82;155201.91;1808474;78;21324;-59
2021/01/23 03:28:35;;;;;;;18.10;9.63;;;;;;;15.46;46.80;155182.14;1799528;79;21216;-59
2021/01/23 03:31:07;;;;;;;17.92;9.88;;;;;;;15.43;46.82;155174.28;1804460;79;21185;-59
2021/01/23 03:33:39;;;;;;;18.30;10.15;;;;;;;15.43;46.88;155175.58;1799335;79;21224;-59
2021/01/23 03:36:11;;;;;;;18.50;9.30;;;;;;;15.48;46.87;155188.77;1784490;79;21247;-58
2021/01/23 03:38:44;;;;;;;17.75;10.60;;;;;;;14.94;47.68;155043.89;1791437;79;21185;-59
2021/01/23 03:41:16;;;;;;;17.02;10.13;;;;;;;14.83;47.96;155016.28;1792681;78;21332;-59
2021/01/23 03:43:48;;;;;;;19.02;9.73;;;;;;;14.83;47.96;155016.28;1818534;78;21867;-59
2021/01/23 03:46:21;;;;;;;21.73;9.85;;;;;;;14.80;47.96;155008.38;1796218;78;21960;-59
2021/01/23 03:48:54;;;;;;;21.00;10.15;;;;;;;14.79;48.01;155005.73;1773078;79;21299;-59
2021/01/23 03:51:27;;;;;;;23.73;10.00;;;;;;;14.77;48.03;154999.17;1805976;78;21547;-59
2021/01/23 03:54:00;;;;;;;18.73;9.80;;;;;;;14.78;48.00;155001.81;1817691;78;21355;-59
2021/01/23 03:56:33;;;;;;;18.23;9.65;;;;;;;14.77;48.09;154999.17;1824718;78;21756;-59
2021/01/23 03:59:05;;;;;;;21.33;9.93;;;;;;;14.75;48.10;154993.91;1793483;78;21375;-59
2021/01/23 04:01:37;;;;;;;19.80;10.58;;;;;;;14.77;48.08;155000.47;1788562;78;21244;-59
2021/01/23 04:04:10;;;;;;;22.82;12.58;;;;;;;14.78;48.13;155003.11;1798395;79;21367;-59
2021/01/23 04:06:43;;;;;;;26.50;14.10;;;;;;;14.81;48.14;155009.72;1815737;78;21221;-59
2021/01/23 04:09:15;;;;;;;22.05;13.72;;;;;;;14.78;48.17;155003.11;1818694;78;21713;-59
2021/01/23 04:11:47;;;;;;;25.40;12.75;;;;;;;14.80;48.16;155008.38;1821527;78;21178;-59
2021/01/23 04:14:20;;;;;;;24.27;12.13;;;;;;;14.74;48.17;154991.27;1803993;78;21280;-58
2021/01/23 04:16:52;;;;;;;19.62;11.83;;;;;;;14.79;48.18;155004.44;1790943;79;21201;-58
2021/01/23 04:19:24;;;;;;;23.70;11.30;;;;;;;14.82;48.11;155012.31;1798798;79;21218;-59
2021/01/23 04:21:57;;;;;;;24.55;12.07;;;;;;;14.84;48.15;155017.58;1801648;78;21256;-58
2021/01/23 04:24:29;;;;;;;23.45;11.28;;;;;;;14.79;48.14;155004.44;1803049;78;21184;-59
2021/01/23 04:27:01;;;;;;;22.65;11.28;;;;;;;14.76;48.21;154996.53;1793294;77;21354;-59
2021/01/23 04:29:34;;;;;;;27.73;14.18;;;;;;;14.76;48.26;154997.83;1794091;79;21334;-59
2021/01/23 04:32:06;;;;;;;29.90;15.13;;;;;;;14.79;48.20;155005.73;1811736;78;21364;-59
2021/01/23 04:34:39;;;;;;;39.90;17.80;;;;;;;14.80;48.20;155007.08;1810441;78;21236;-59
2021/01/23 04:37:11;;;;;;;36.93;18.77;;;;;;;14.85;48.07;155020.20;1817587;77;21241;-59
2021/01/23 04:39:45;;;;;;;34.67;15.43;;;;;;;14.88;48.08;155028.12;1794857;78;21387;-59
2021/01/23 04:42:17;;;;;;;31.20;13.62;;;;;;;14.83;48.11;155014.94;1785689;79;21829;-58
2021/01/23 04:44:49;;;;;;;27.60;12.70;;;;;;;14.82;48.13;155012.31;1796233;79;21345;-59
2021/01/23 04:47:22;;;;;;;24.47;13.70;;;;;;;14.85;48.17;155021.56;1803817;79;21316;-59
2021/01/23 04:49:54;;;;;;;29.27;15.08;;;;;;;14.90;48.11;155034.69;1800106;78;21201;-59
2021/01/23 04:52:26;;;;;;;29.87;14.65;;;;;;;14.91;48.13;155036.03;1796701;78;21728;-59
2021/01/23 04:54:58;;;;;;;22.73;12.85;;;;;;;14.97;48.06;155051.80;1803016;79;21197;-59
2021/01/23 04:57:31;;;;;;;24.82;13.13;;;;;;;14.98;47.97;155055.78;1743046;79;21434;-59
2021/01/23 05:00:05;;;;;;;25.30;13.20;;;;;;;14.91;47.93;155037.31;1771385;79;21366;-59
2021/01/23 05:02:38;;;;;;;25.48;13.68;;;;;;;14.88;47.93;155028.12;1791398;79;21396;-59
2021/01/23 05:05:12;;;;;;;30.05;14.20;;;;;;;14.85;47.97;155020.20;1789613;79;21363;-59
2021/01/23 05:07:46;;;;;;;25.27;13.55;;;;;;;14.79;47.95;155004.44;1800403;79;21347;-59
2021/01/23 05:10:24;;;;;;;26.15;14.25;;;;;;;14.79;47.95;155005.73;1792880;79;21855;-59
2021/01/23 05:12:58;;;;;;;25.40;13.65;;;;;;;14.72;47.96;154986.00;1821933;78;21674;-59
2021/01/23 05:15:34;;;;;;;28.10;15.10;;;;;;;14.69;48.03;154979.44;1790200;79;21313;-59
2021/01/23 05:18:09;;;;;;;31.97;15.95;;;;;;;14.65;48.08;154968.89;1806657;78;21363;-59
2021/01/23 05:20:52;;;;;;;30.72;15.55;;;;;;;14.58;48.15;154949.20;1790883;79;21260;-59
2021/01/23 05:23:28;;;;;;;22.50;11.95;;;;;;;14.55;48.14;154942.59;1800396;78;21332;-59
2021/01/23 05:26:01;;;;;;;25.27;12.90;;;;;;;14.49;48.24;154926.81;1809204;78;21333;-59
2021/01/23 05:28:38;;;;;;;20.30;11.95;;;;;;;14.56;48.36;154943.92;1801311;78;21363;-59
2021/01/23 05:31:18;;;;;;;27.42;12.88;;;;;;;14.75;47.83;154993.91;1809435;78;21388;-59
2021/01/23 05:33:50;;;;;;;26.97;13.83;;;;;;;14.65;48.13;154968.89;1804386;78;21403;-60
2021/01/23 05:36:22;;;;;;;26.77;12.88;;;;;;;14.36;48.37;154891.28;1811251;78;21190;-59
2021/01/23 05:38:56;;;;;;;24.02;12.13;;;;;;;14.30;48.55;154875.52;1736546;81;21360;-59
2021/01/23 05:41:29;;;;;;;20.30;11.40;;;;;;;14.35;48.51;154887.34;1744719;81;21189;-60
2021/01/23 05:44:02;;;;;;;20.50;12.10;;;;;;;14.26;48.62;154863.69;1796505;78;21337;-59
2021/01/23 05:46:37;;;;;;;24.50;12.07;;;;;;;14.21;48.82;154851.86;1792701;79;21544;-60
2021/01/23 05:49:10;;;;;;;23.10;12.15;;;;;;;14.18;48.90;154842.61;1786416;79;21221;-60
2021/01/23 05:51:46;;;;;;;24.70;13.00;;;;;;;14.17;48.83;154841.31;1809516;78;21237;-59
2021/01/23 05:54:21;;;;;;;26.15;14.13;;;;;;;14.17;48.87;154841.31;1795774;78;21216;-62
2021/01/23 05:56:54;;;;;;;26.05;13.98;;;;;;;14.23;48.82;154855.78;1795442;78;21186;-67
2021/01/23 05:59:30;;;;;;;36.45;15.20;;;;;;;14.20;48.91;154847.87;1796550;78;22322;-60
2021/01/23 06:02:05;;;;;;;27.45;14.28;;;;;;;14.22;48.84;154853.16;1789267;78;21264;-66
2021/01/23 06:04:42;;;;;;;30.77;16.70;;;;;;;14.24;48.83;154858.41;1788602;77;21240;-74
2021/01/23 06:07:16;;;;;;;30.40;15.10;;;;;;;14.26;48.78;154864.97;1803643;77;21311;-60
2021/01/23 06:09:50;;;;;;;29.50;14.58;;;;;;;14.29;48.81;154872.88;1775814;78;21169;-57
2021/01/23 06:12:37;;;;;;;27.50;14.95;;;;;;;14.32;48.76;154879.44;1730027;79;22647;-59
2021/01/23 06:15:41;;;;;;;28.55;15.72;;;;;;;14.30;48.84;154874.17;1792419;77;21189;-63
2021/01/23 06:18:34;;;;;;;26.80;14.70;;;;;;;14.32;48.75;154879.44;1792171;77;21359;-63
2021/01/23 06:21:16;;;;;;;32.28;17.57;;;;;;;14.31;48.74;154878.16;1740072;79;22406;-66
2021/01/23 06:23:51;;;;;;;33.05;17.30;;;;;;;14.28;48.78;154870.25;1740905;80;21344;-65
2021/01/23 06:26:26;;;;;;;29.20;16.87;;;;;;;14.30;48.79;154875.52;1740030;81;21383;-65
2021/01/23 06:28:58;;;;;;;29.57;16.70;;;;;;;14.35;48.82;154888.64;1734299;80;21808;-64
2021/01/23 06:31:36;;;;;;;29.45;15.80;;;;;;;14.46;48.75;154917.63;1730090;81;21217;-65
2021/01/23 06:34:27;;;;;;;32.60;15.28;;;;;;;14.46;48.77;154917.63;1723950;81;21407;-60
2021/01/23 06:37:41;;;;;;;31.33;15.93;;;;;;;14.45;48.70;154916.28;1792101;78;21411;-67
2021/01/23 06:40:12;;;;;;;31.62;15.45;;;;;;;14.45;48.72;154916.28;1786981;77;21499;-66
2021/01/23 06:42:48;;;;;;;32.85;16.62;;;;;;;14.48;48.77;154922.84;1796227;78;21449;-66
2021/01/23 06:45:27;;;;;;;27.87;14.75;;;;;;;14.50;48.83;154929.45;1796571;78;21332;-68
2021/01/23 06:48:00;;;;;;;27.52;14.83;;;;;;;14.54;48.85;154938.66;1794474;78;21332;-66
2021/01/23 06:50:43;;;;;;;100.25;45.65;;;;;;;14.58;48.82;154949.20;1791602;78;21367;-66
2021/01/23 06:53:25;;;;;;;46.85;26.50;;;;;;;14.61;48.87;154958.41;1799284;78;21862;-64
2021/01/23 06:55:59;;;;;;;42.15;21.52;;;;;;;14.69;48.88;154979.44;1797513;77;21909;-63
2021/01/23 06:58:36;;;;;;;35.92;18.57;;;;;;;14.78;48.86;155003.11;1735535;81;21647;-63
2021/01/23 07:01:08;;;;;;;32.25;18.95;;;;;;;14.84;48.80;155017.58;1730460;81;21432;-62
2021/01/23 07:03:42;;;;;;;33.45;17.50;;;;;;;14.94;48.83;155043.89;1744945;78;21236;-65
2021/01/23 07:06:15;;;;;;;35.80;15.35;;;;;;;15.04;48.66;155071.53;1736987;79;21217;-63
2021/01/23 07:08:49;;;;;;;34.38;15.10;;;;;;;15.10;48.56;155086.02;1799375;78;21227;-63
2021/01/23 07:11:21;;;;;;;28.65;14.55;;;;;;;15.16;48.50;155101.84;1788246;77;21253;-56
2021/01/23 07:14:07;;;;;;;31.85;16.27;;;;;;;15.19;48.59;155109.70;1793981;77;21225;-57
2021/01/23 07:16:40;;;;;;;31.65;14.28;;;;;;;15.27;48.45;155132.14;1804303;78;21316;-55
2021/01/23 07:19:13;;;;;;;28.57;14.75;;;;;;;15.38;48.49;155159.80;1796043;77;21244;-56
2021/01/23 07:21:46;;;;;;;29.10;14.63;;;;;;;15.44;48.30;155176.92;1788934;77;21198;-56
2021/01/23 07:24:19;;;;;;;26.27;13.95;;;;;;;15.54;48.01;155203.25;1802023;78;21682;-58
2021/01/23 07:26:52;;;;;;;24.63;12.82;;;;;;;15.63;47.92;155226.94;1697497;81;21242;-58
2021/01/23 07:29:25;;;;;;;25.30;12.35;;;;;;;15.60;47.91;155220.36;1738926;81;21440;-61
2021/01/23 07:31:57;;;;;;;24.02;12.63;;;;;;;15.56;47.96;155208.52;1798851;78;21220;-58
2021/01/23 07:34:30;;;;;;;23.42;12.65;;;;;;;15.61;47.83;155223.00;1799989;77;21265;-58
2021/01/23 07:37:02;;;;;;;24.72;12.93;;;;;;;15.41;48.15;155169.00;1806260;77;21237;-61
2021/01/23 07:39:34;;;;;;;27.42;13.53;;;;;;;15.51;47.92;155196.63;1802519;78;21423;-75
2021/01/23 07:42:08;;;;;;;24.45;12.70;;;;;;;15.58;47.85;155213.75;1795694;78;21214;-57
2021/01/23 07:44:42;;;;;;;19.05;10.50;;;;;;;15.51;47.94;155196.63;1731273;80;21388;-59
2021/01/23 07:47:14;;;;;;;23.18;11.90;;;;;;;15.48;47.84;155187.42;1725167;81;21285;-59
2021/01/23 07:49:47;;;;;;;23.65;13.80;;;;;;;15.65;47.86;155232.22;1708506;81;21182;-60
2021/01/23 07:52:20;;;;;;;27.10;14.60;;;;;;;15.78;47.63;155267.75;1712715;81;21512;-61
2021/01/23 07:54:53;;;;;;;30.40;16.12;;;;;;;15.91;47.54;155300.70;1676258;81;21241;-69
2021/01/23 07:57:26;;;;;;;26.82;15.03;;;;;;;16.06;47.43;155340.19;1731739;80;21222;-61
2021/01/23 07:59:58;;;;;;;24.00;14.28;;;;;;;16.33;47.29;155412.69;1717019;81;21680;-60
2021/01/23 08:02:34;;;;;;;27.50;14.63;;;;;;;16.51;47.16;155460.16;1736053;80;21301;-59
2021/01/23 08:05:09;;;;;;;28.23;13.98;;;;;;;16.71;46.82;155512.84;1707066;81;21938;-59
2021/01/23 08:07:43;;;;;;;27.55;13.62;;;;;;;16.78;46.60;155532.62;1727845;81;21217;-60
2021/01/23 08:10:20;;;;;;;28.42;13.58;;;;;;;16.92;46.48;155568.20;1783544;78;21213;-60
2021/01/23 08:13:01;;;;;;;27.62;13.55;;;;;;;17.42;45.71;155701.41;1795471;78;21255;-61
2021/01/23 08:15:40;;;;;;;27.27;13.28;;;;;;;17.61;45.37;155752.86;1788784;77;21402;-60
2021/01/23 08:18:21;;;;;;;26.27;13.88;;;;;;;17.55;45.27;155737.06;1802897;78;21693;-60
2021/01/23 08:20:54;;;;;;;28.02;14.03;;;;;;;17.60;45.34;155750.22;1802413;78;21389;-61
2021/01/23 08:23:33;;;;;;;29.23;15.03;;;;;;;17.65;45.44;155763.44;1806084;77;21273;-61
2021/01/23 08:26:06;;;;;;;26.00;13.60;;;;;;;17.69;45.36;155774.00;1798734;77;21367;-60
2021/01/23 08:28:41;;;;;;;24.37;12.65;;;;;;;17.91;45.31;155830.70;1799890;78;21319;-61
2021/01/23 08:31:23;;;;;;;34.90;14.30;;;;;;;18.21;44.60;155911.20;1801351;78;21390;-59
2021/01/23 08:33:57;;;;;;;21.97;12.68;;;;;;;17.98;44.43;155849.20;1794406;77;21312;-59
2021/01/23 08:36:31;;;;;;;20.82;11.25;;;;;;;17.73;44.69;155784.53;1786663;78;21796;-61
2021/01/23 08:39:08;;;;;;;26.40;13.50;;;;;;;17.56;44.83;155739.70;1791127;78;21221;-60
2021/01/23 08:41:42;;;;;;;24.20;12.45;;;;;;;17.56;44.93;155739.70;1798930;78;21293;-60
2021/01/23 08:44:15;;;;;;;24.27;11.45;;;;;;;17.59;45.10;155747.58;1795641;77;21237;-59
2021/01/23 08:46:49;;;;;;;23.67;10.88;;;;;;;17.77;45.15;155793.75;1791048;77;21245;-63
2021/01/23 08:49:21;;;;;;;26.57;12.90;;;;;;;17.89;45.02;155826.75;1807186;78;21179;-60
2021/01/23 08:51:57;;;;;;;25.02;12.78;;;;;;;18.14;44.75;155892.73;1795325;78;21860;-60
2021/01/23 08:54:29;;;;;;;27.35;11.80;;;;;;;18.64;44.58;156024.75;1733345;82;21388;-60
2021/01/23 08:57:02;;;;;;;31.07;13.15;;;;;;;18.92;44.20;156098.70;1711852;81;21209;-60
2021/01/23 08:59:35;;;;;;;30.30;13.65;;;;;;;19.03;43.96;156127.77;1736928;81;21202;-61
2021/01/23 09:02:10;;;;;;;27.48;11.97;;;;;;;18.97;43.80;156111.94;1766615;80;21380;-60
2021/01/23 09:04:42;;;;;;;24.95;12.45;;;;;;;19.09;43.78;156144.94;1742581;81;21213;-60
2021/01/23 09:07:15;;;;;;;25.80;12.75;;;;;;;19.06;43.37;156137.00;1722401;81;21403;-60
2021/01/23 09:09:48;;;;;;;23.42;11.83;;;;;;;19.03;43.53;156127.77;1727585;81;21302;-60
2021/01/23 09:12:21;;;;;;;22.40;11.53;;;;;;;19.00;43.36;156121.17;1743638;81;21207;-60
2021/01/23 09:14:53;;;;;;;22.62;12.05;;;;;;;18.83;43.40;156076.25;1758552;81;21348;-61
2021/01/23 09:17:26;;;;;;;21.57;11.50;;;;;;;18.64;43.46;156024.75;1753358;81;21233;-60
2021/01/23 09:19:58;;;;;;;25.62;13.08;;;;;;;18.47;43.70;155981.19;1747610;81;21213;-60
2021/01/23 09:22:31;;;;;;;22.42;11.60;;;;;;;18.86;43.63;156084.19;1749354;81;21262;-61
2021/01/23 09:25:05;;;;;;;23.98;12.28;;;;;;;19.03;43.49;156129.11;1743592;80;21721;-60
2021/01/23 09:27:38;;;;;;;24.87;12.18;;;;;;;19.22;43.38;156180.62;1735140;80;21233;-60
2021/01/23 09:30:11;;;;;;;23.92;11.95;;;;;;;19.50;43.26;156254.62;1734495;81;21753;-60
2021/01/23 09:32:43;;;;;;;22.02;11.08;;;;;;;19.69;42.76;156303.52;1721306;82;21264;-61
2021/01/23 09:35:16;;;;;;;26.70;13.62;;;;;;;19.76;42.63;156322.00;1711559;82;21336;-61
2021/01/23 09:37:48;;;;;;;26.20;12.55;;;;;;;19.79;42.69;156331.23;1733110;82;21246;-61
2021/01/23 09:40:21;;;;;;;24.37;12.90;;;;;;;20.05;42.46;156401.38;1793437;79;21208;-61
2021/01/23 09:42:53;;;;;;;22.75;11.97;;;;;;;19.92;42.33;156365.61;1768445;79;21335;-61
2021/01/23 09:45:25;;;;;;;23.70;11.75;;;;;;;19.85;42.43;156345.83;1792864;79;21383;-60
2021/01/23 09:47:58;;;;;;;24.75;12.68;;;;;;;19.78;42.44;156328.64;1796684;79;21288;-60
2021/01/23 09:50:33;;;;;;;27.20;14.43;;;;;;;19.67;42.53;156299.56;1802964;78;21832;-60
2021/01/23 09:53:07;;;;;;;24.75;12.40;;;;;;;19.70;42.62;156306.17;1807712;78;21359;-60
2021/01/23 09:55:39;;;;;;;24.10;12.23;;;;;;;19.71;42.57;156308.81;1804790;77;21460;-61
2021/01/23 09:58:11;;;;;;;21.62;11.73;;;;;;;19.66;42.62;156295.58;1791698;79;21189;-61
2021/01/23 10:00:46;;;;;;;24.07;12.03;;;;;;;19.30;42.50;156200.44;1806644;78;21177;-61
2021/01/23 10:03:18;;;;;;;25.12;12.80;;;;;;;18.97;42.76;156111.94;1807837;78;21432;-61
2021/01/23 10:05:51;;;;;;;22.37;11.68;;;;;;;18.45;43.39;155975.95;1810380;78;21380;-61
2021/01/23 10:08:23;;;;;;;23.27;12.13;;;;;;;18.27;43.63;155928.41;1808115;78;21252;-61
2021/01/23 10:10:55;;;;;;;23.10;11.70;;;;;;;18.17;44.08;155901.97;1810446;78;21159;-60
2021/01/23 10:13:28;;;;;;;24.37;11.83;;;;;;;17.98;44.47;155849.20;1757815;81;21241;-60
2021/01/23 10:16:00;;;;;;;27.75;12.78;;;;;;;17.79;44.86;155800.38;1762597;81;21564;-60
2021/01/23 10:18:36;;;;;;;28.47;14.55;;;;;;;17.74;44.97;155787.16;1762678;81;22213;-60
2021/01/23 10:21:08;;;;;;;25.92;13.15;;;;;;;17.57;45.25;155742.34;1748527;81;22512;-60
2021/01/23 10:23:41;;;;;;;28.60;14.03;;;;;;;17.48;45.21;155718.56;1757466;81;21309;-60
2021/01/23 10:26:14;;;;;;;22.65;11.65;;;;;;;17.22;45.96;155648.62;1801791;79;21159;-60
2021/01/23 10:28:46;;;;;;;28.62;14.03;;;;;;;17.32;45.86;155676.39;1808687;78;21178;-60
2021/01/23 10:31:18;;;;;;;26.55;12.50;;;;;;;17.44;45.73;155708.05;1812317;77;21213;-60
2021/01/23 10:33:50;;;;;;;25.50;13.13;;;;;;;17.37;45.95;155689.55;1825463;77;21241;-60
2021/01/23 10:36:23;;;;;;;27.90;14.10;;;;;;;17.25;46.12;155657.84;1813949;77;21206;-60
2021/01/23 10:38:55;;;;;;;29.27;13.88;;;;;;;17.29;46.17;155668.47;1801375;79;21192;-60
2021/01/23 10:41:27;;;;;;;26.90;12.90;;;;;;;17.37;46.13;155688.25;1808340;79;21201;-61
2021/01/23 10:44:00;;;;;;;27.20;14.45;;;;;;;17.31;46.29;155672.41;1808365;79;21249;-60
2021/01/23 10:46:32;;;;;;;28.20;12.70;;;;;;;17.13;46.64;155624.91;1793831;79;21204;-60
2021/01/23 10:49:05;;;;;;;25.82;11.85;;;;;;;17.13;46.88;155624.91;1757457;80;21249;-60
2021/01/23 10:51:38;;;;;;;24.60;12.00;;;;;;;17.23;46.94;155652.62;1729850;82;21813;-61
2021/01/23 10:54:10;;;;;;;27.60;12.35;;;;;;;17.31;46.91;155672.41;1738139;81;21174;-60
2021/01/23 10:56:43;;;;;;;27.58;13.32;;;;;;;17.34;46.85;155681.69;1752875;81;21866;-60
2021/01/23 10:59:15;;;;;;;24.65;12.90;;;;;;;17.39;46.82;155694.84;1707310;82;21237;-60
2021/01/23 11:01:48;;;;;;;25.12;11.18;;;;;;;17.48;46.64;155717.27;1711496;82;21276;-61
2021/01/23 11:04:20;;;;;;;23.47;12.10;;;;;;;17.54;46.53;155734.41;1720527;82;21340;-60
2021/01/23 11:06:53;;;;;;;28.23;13.00;;;;;;;17.46;46.50;155711.98;1733483;81;22208;-60
2021/01/23 11:09:26;;;;;;;27.65;12.88;;;;;;;17.37;46.62;155689.55;1721931;82;21237;-60
2021/01/23 11:11:58;;;;;;;27.02;14.00;;;;;;;17.40;46.69;155696.19;1738107;81;21372;-60
2021/01/23 11:14:31;;;;;;;23.67;12.20;;;;;;;17.47;46.68;155715.97;1736462;81;21219;-61
2021/01/23 11:17:04;;;;;;;30.17;15.43;;;;;;;17.61;46.70;155752.86;1730135;82;21240;-61
2021/01/23 11:19:37;;;;;;;29.10;13.43;;;;;;;17.78;46.41;155796.39;1810384;78;21225;-59
2021/01/23 11:22:10;;;;;;;26.97;12.80;;;;;;;17.68;46.36;155771.36;1803520;78;21736;-58
2021/01/23 11:24:42;;;;;;;26.95;14.33;;;;;;;17.57;46.45;155742.34;1810705;78;21185;-58
2021/01/23 11:27:15;;;;;;;27.27;13.75;;;;;;;17.53;46.54;155731.78;1780153;78;21719;-59
2021/01/23 11:29:49;;;;;;;26.68;13.05;;;;;;;17.68;46.50;155771.36;1775156;80;21194;-75
2021/01/23 11:32:21;;;;;;;26.77;13.30;;;;;;;17.74;46.52;155785.87;1783787;80;21349;-60
2021/01/23 11:34:53;;;;;;;26.07;12.63;;;;;;;17.68;46.40;155771.36;1831189;77;21359;-59
2021/01/23 11:37:26;;;;;;;24.80;13.20;;;;;;;17.64;46.39;155760.80;1831065;77;21185;-59
2021/01/23 11:39:58;;;;;;;23.10;11.83;;;;;;;17.69;46.30;155774.00;1820964;78;21224;-59
2021/01/23 11:42:30;;;;;;;22.07;12.25;;;;;;;17.77;46.35;155793.75;1811218;78;21218;-59